sensor_id;sensor_type;location;lat;lon;timestamp;temperature;humidity
3053;DHT22;1536;51.098;6.414;2023-12-28T00:00:24;11.20;99.90
3053;DHT22;1536;51.098;6.414;2023-12-28T00:02:51;11.30;99.90
3053;DHT22;1536;51.098;6.414;2023-12-28T00:05:18;11.20;99.90
3053;DHT22;1536;51.098;6.414;2023-12-28T00:07:44;11.20;99.90
3053;DHT22;1536;51.098;6.414;2023-12-28T00:10:11;11.20;99.90
3053;DHT22;1536;51.098;6.414;2023-12-28T00:12:38;11.20;99.90
3053;DHT22;1536;51.098;6.414;2023-12-28T00:15:06;11.10;99.90
3053;DHT22;1536;51.098;6.414;2023-12-28T00:17:43;11.10;99.90
3053;DHT22;1536;51.098;6.414;2023-12-28T00:20:11;11.10;99.90
3053;DHT22;1536;51.098;6.414;2023-12-28T00:22:38;11.10;99.90
3053;DHT22;1536;51.098;6.414;2023-12-28T00:25:06;11.10;99.90
3053;DHT22;1536;51.098;6.414;2023-12-28T00:27:32;11.00;99.90
3053;DHT22;1536;51.098;6.414;2023-12-28T00:30:04;11.00;99.90
3053;DHT22;1536;51.098;6.414;2023-12-28T00:32:31;11.00;99.90
3053;DHT22;1536;51.098;6.414;2023-12-28T00:34:59;11.00;99.90
3053;DHT22;1536;51.098;6.414;2023-12-28T00:37:26;11.00;99.90
3053;DHT22;1536;51.098;6.414;2023-12-28T00:39:53;11.00;99.90
3053;DHT22;1536;51.098;6.414;2023-12-28T00:42:19;11.00;99.90
3053;DHT22;1536;51.098;6.414;2023-12-28T00:44:46;11.00;99.90
3053;DHT22;1536;51.098;6.414;2023-12-28T00:47:28;11.00;99.90
3053;DHT22;1536;51.098;6.414;2023-12-28T00:49:55;11.00;99.90
3053;DHT22;1536;51.098;6.414;2023-12-28T00:52:23;11.00;99.90
3053;DHT22;1536;51.098;6.414;2023-12-28T00:54:49;11.00;99.90
3053;DHT22;1536;51.098;6.414;2023-12-28T00:57:16;11.00;99.90
3053;DHT22;1536;51.098;6.414;2023-12-28T00:59:43;11.00;99.90
3053;DHT22;1536;51.098;6.414;2023-12-28T01:02:10;11.00;99.90
3053;DHT22;1536;51.098;6.414;2023-12-28T01:04:36;11.00;99.90
3053;DHT22;1536;51.098;6.414;2023-12-28T01:07:03;11.00;99.90
3053;DHT22;1536;51.098;6.414;2023-12-28T01:09:32;11.00;99.90
3053;DHT22;1536;51.098;6.414;2023-12-28T01:11:59;11.00;99.90
3053;DHT22;1536;51.098;6.414;2023-12-28T01:14:28;11.00;99.90
3053;DHT22;1536;51.098;6.414;2023-12-28T01:17:25;11.00;99.90
3053;DHT22;1536;51.098;6.414;2023-12-28T01:19:52;11.00;99.90
3053;DHT22;1536;51.098;6.414;2023-12-28T01:22:19;11.10;99.90
3053;DHT22;1536;51.098;6.414;2023-12-28T01:24:47;11.00;99.90
3053;DHT22;1536;51.098;6.414;2023-12-28T01:27:15;11.00;99.90
3053;DHT22;1536;51.098;6.414;2023-12-28T01:29:42;11.00;99.90
3053;DHT22;1536;51.098;6.414;2023-12-28T01:32:08;11.00;99.90
3053;DHT22;1536;51.098;6.414;2023-12-28T01:34:35;11.00;99.90
3053;DHT22;1536;51.098;6.414;2023-12-28T01:37:02;11.00;99.90
3053;DHT22;1536;51.098;6.414;2023-12-28T01:39:29;11.00;99.90
3053;DHT22;1536;51.098;6.414;2023-12-28T01:41:57;11.10;99.90
3053;DHT22;1536;51.098;6.414;2023-12-28T01:44:24;11.10;99.90
3053;DHT22;1536;51.098;6.414;2023-12-28T01:46:51;11.10;99.90
3053;DHT22;1536;51.098;6.414;2023-12-28T01:49:18;11.10;99.90
3053;DHT22;1536;51.098;6.414;2023-12-28T01:51:46;11.10;99.90
3053;DHT22;1536;51.098;6.414;2023-12-28T01:54:28;11.10;99.90
3053;DHT22;1536;51.098;6.414;2023-12-28T01:56:57;11.10;99.90
3053;DHT22;1536;51.098;6.414;2023-12-28T01:59:24;11.10;99.90
3053;DHT22;1536;51.098;6.414;2023-12-28T02:01:51;11.10;99.90
3053;DHT22;1536;51.098;6.414;2023-12-28T02:04:18;11.20;99.90
3053;DHT22;1536;51.098;6.414;2023-12-28T02:06:52;11.20;99.90
3053;DHT22;1536;51.098;6.414;2023-12-28T02:09:19;11.20;99.90
3053;DHT22;1536;51.098;6.414;2023-12-28T02:11:46;11.20;99.90
3053;DHT22;1536;51.098;6.414;2023-12-28T02:14:14;11.20;99.90
3053;DHT22;1536;51.098;6.414;2023-12-28T02:17:03;11.20;99.90
3053;DHT22;1536;51.098;6.414;2023-12-28T02:19:35;11.20;99.90
3053;DHT22;1536;51.098;6.414;2023-12-28T02:22:04;11.20;99.90
3053;DHT22;1536;51.098;6.414;2023-12-28T02:24:31;11.20;99.90
3053;DHT22;1536;51.098;6.414;2023-12-28T02:27:00;11.20;99.90
3053;DHT22;1536;51.098;6.414;2023-12-28T02:29:28;11.20;99.90
3053;DHT22;1536;51.098;6.414;2023-12-28T02:32:00;11.20;99.90
3053;DHT22;1536;51.098;6.414;2023-12-28T02:34:31;11.20;99.90
3053;DHT22;1536;51.098;6.414;2023-12-28T02:37:01;11.20;99.90
3053;DHT22;1536;51.098;6.414;2023-12-28T02:39:28;11.20;99.90
3053;DHT22;1536;51.098;6.414;2023-12-28T02:41:56;11.20;99.90
3053;DHT22;1536;51.098;6.414;2023-12-28T02:44:25;11.20;99.90
3053;DHT22;1536;51.098;6.414;2023-12-28T02:47:10;11.20;99.90
3053;DHT22;1536;51.098;6.414;2023-12-28T02:49:38;11.20;99.90
3053;DHT22;1536;51.098;6.414;2023-12-28T02:52:05;11.20;99.90
3053;DHT22;1536;51.098;6.414;2023-12-28T02:54:32;11.10;99.90
3053;DHT22;1536;51.098;6.414;2023-12-28T02:56:59;11.10;99.90
3053;DHT22;1536;51.098;6.414;2023-12-28T02:59:27;11.10;99.90
3053;DHT22;1536;51.098;6.414;2023-12-28T03:01:53;11.10;99.90
3053;DHT22;1536;51.098;6.414;2023-12-28T03:04:20;11.10;99.90
3053;DHT22;1536;51.098;6.414;2023-12-28T03:06:47;11.10;99.90
3053;DHT22;1536;51.098;6.414;2023-12-28T03:09:14;11.10;99.90
3053;DHT22;1536;51.098;6.414;2023-12-28T03:11:40;11.10;99.90
3053;DHT22;1536;51.098;6.414;2023-12-28T03:14:07;11.10;99.90
3053;DHT22;1536;51.098;6.414;2023-12-28T03:17:06;11.10;99.90
3053;DHT22;1536;51.098;6.414;2023-12-28T03:19:33;11.10;99.90
3053;DHT22;1536;51.098;6.414;2023-12-28T03:22:00;11.00;99.90
3053;DHT22;1536;51.098;6.414;2023-12-28T03:24:27;11.00;99.90
3053;DHT22;1536;51.098;6.414;2023-12-28T03:26:54;11.00;99.90
3053;DHT22;1536;51.098;6.414;2023-12-28T03:29:21;11.10;99.90
3053;DHT22;1536;51.098;6.414;2023-12-28T03:31:47;11.00;99.90
3053;DHT22;1536;51.098;6.414;2023-12-28T03:34:16;11.00;99.90
3053;DHT22;1536;51.098;6.414;2023-12-28T03:36:43;11.00;99.90
3053;DHT22;1536;51.098;6.414;2023-12-28T03:39:10;11.00;99.90
3053;DHT22;1536;51.098;6.414;2023-12-28T03:41:37;11.00;99.90
3053;DHT22;1536;51.098;6.414;2023-12-28T03:44:04;11.00;99.90
3053;DHT22;1536;51.098;6.414;2023-12-28T03:46:30;11.00;99.90
3053;DHT22;1536;51.098;6.414;2023-12-28T03:48:57;11.00;99.90
3053;DHT22;1536;51.098;6.414;2023-12-28T03:51:25;11.00;99.90
3053;DHT22;1536;51.098;6.414;2023-12-28T03:53:52;11.00;99.90
3053;DHT22;1536;51.098;6.414;2023-12-28T03:56:20;11.00;99.90
3053;DHT22;1536;51.098;6.414;2023-12-28T03:58:49;11.00;99.90
3053;DHT22;1536;51.098;6.414;2023-12-28T04:01:18;11.00;99.90
3053;DHT22;1536;51.098;6.414;2023-12-28T04:03:45;11.00;99.90
3053;DHT22;1536;51.098;6.414;2023-12-28T04:06:12;11.00;99.90
3053;DHT22;1536;51.098;6.414;2023-12-28T04:08:41;11.00;99.90
3053;DHT22;1536;51.098;6.414;2023-12-28T04:11:08;11.00;99.90
3053;DHT22;1536;51.098;6.414;2023-12-28T04:13:35;11.00;99.90
3053;DHT22;1536;51.098;6.414;2023-12-28T04:16:02;11.00;99.90
3053;DHT22;1536;51.098;6.414;2023-12-28T04:18:29;11.00;99.90
3053;DHT22;1536;51.098;6.414;2023-12-28T04:20:55;11.00;99.90
3053;DHT22;1536;51.098;6.414;2023-12-28T04:23:22;11.00;99.90
3053;DHT22;1536;51.098;6.414;2023-12-28T04:25:50;11.00;99.90
3053;DHT22;1536;51.098;6.414;2023-12-28T04:28:17;11.00;99.90
3053;DHT22;1536;51.098;6.414;2023-12-28T04:30:44;11.00;99.90
3053;DHT22;1536;51.098;6.414;2023-12-28T04:33:11;11.00;99.90
3053;DHT22;1536;51.098;6.414;2023-12-28T04:35:37;11.00;99.90
3053;DHT22;1536;51.098;6.414;2023-12-28T04:38:04;11.00;99.90
3053;DHT22;1536;51.098;6.414;2023-12-28T04:40:31;10.90;99.90
3053;DHT22;1536;51.098;6.414;2023-12-28T04:43:00;10.90;99.90
3053;DHT22;1536;51.098;6.414;2023-12-28T04:45:27;10.90;99.90
3053;DHT22;1536;51.098;6.414;2023-12-28T04:47:54;10.90;99.90
3053;DHT22;1536;51.098;6.414;2023-12-28T04:50:20;10.90;99.90
3053;DHT22;1536;51.098;6.414;2023-12-28T04:52:47;10.90;99.90
3053;DHT22;1536;51.098;6.414;2023-12-28T04:55:14;10.90;99.90
3053;DHT22;1536;51.098;6.414;2023-12-28T04:57:41;10.90;99.90
3053;DHT22;1536;51.098;6.414;2023-12-28T05:00:10;11.00;99.90
3053;DHT22;1536;51.098;6.414;2023-12-28T05:02:36;11.00;99.90
3053;DHT22;1536;51.098;6.414;2023-12-28T05:05:04;11.00;99.90
3053;DHT22;1536;51.098;6.414;2023-12-28T05:07:30;11.00;99.90
3053;DHT22;1536;51.098;6.414;2023-12-28T05:09:57;11.00;99.90
3053;DHT22;1536;51.098;6.414;2023-12-28T05:12:24;11.10;99.90
3053;DHT22;1536;51.098;6.414;2023-12-28T05:14:50;11.00;99.90
3053;DHT22;1536;51.098;6.414;2023-12-28T05:17:24;11.10;99.90
3053;DHT22;1536;51.098;6.414;2023-12-28T05:19:51;11.10;99.90
3053;DHT22;1536;51.098;6.414;2023-12-28T05:22:18;11.10;99.90
3053;DHT22;1536;51.098;6.414;2023-12-28T05:24:44;11.10;99.90
3053;DHT22;1536;51.098;6.414;2023-12-28T05:27:11;11.10;99.90
3053;DHT22;1536;51.098;6.414;2023-12-28T05:29:39;11.20;99.90
3053;DHT22;1536;51.098;6.414;2023-12-28T05:32:06;11.20;99.90
3053;DHT22;1536;51.098;6.414;2023-12-28T05:34:34;11.20;99.90
3053;DHT22;1536;51.098;6.414;2023-12-28T05:37:01;11.20;99.90
3053;DHT22;1536;51.098;6.414;2023-12-28T05:39:28;11.20;99.90
3053;DHT22;1536;51.098;6.414;2023-12-28T05:41:54;11.20;99.90
3053;DHT22;1536;51.098;6.414;2023-12-28T05:44:21;11.20;99.90
3053;DHT22;1536;51.098;6.414;2023-12-28T05:46:51;11.20;99.90
3053;DHT22;1536;51.098;6.414;2023-12-28T05:49:18;11.20;99.90
3053;DHT22;1536;51.098;6.414;2023-12-28T05:51:46;11.30;99.90
3053;DHT22;1536;51.098;6.414;2023-12-28T05:54:13;11.30;99.90
3053;DHT22;1536;51.098;6.414;2023-12-28T05:56:39;11.30;99.90
3053;DHT22;1536;51.098;6.414;2023-12-28T05:59:06;11.30;99.90
3053;DHT22;1536;51.098;6.414;2023-12-28T06:01:41;11.30;99.90
3053;DHT22;1536;51.098;6.414;2023-12-28T06:04:08;11.30;99.90
3053;DHT22;1536;51.098;6.414;2023-12-28T06:06:35;11.30;99.90
3053;DHT22;1536;51.098;6.414;2023-12-28T06:09:04;11.30;99.90
3053;DHT22;1536;51.098;6.414;2023-12-28T06:11:31;11.30;99.90
3053;DHT22;1536;51.098;6.414;2023-12-28T06:13:58;11.30;99.90
3053;DHT22;1536;51.098;6.414;2023-12-28T06:16:33;11.40;99.90
3053;DHT22;1536;51.098;6.414;2023-12-28T06:19:01;11.30;99.90
3053;DHT22;1536;51.098;6.414;2023-12-28T06:21:27;11.30;99.90
3053;DHT22;1536;51.098;6.414;2023-12-28T06:23:55;11.30;99.90
3053;DHT22;1536;51.098;6.414;2023-12-28T06:26:23;11.30;99.90
3053;DHT22;1536;51.098;6.414;2023-12-28T06:28:50;11.40;99.90
3053;DHT22;1536;51.098;6.414;2023-12-28T06:31:17;11.40;99.90
3053;DHT22;1536;51.098;6.414;2023-12-28T06:33:44;11.40;99.90
3053;DHT22;1536;51.098;6.414;2023-12-28T06:36:11;11.40;99.90
3053;DHT22;1536;51.098;6.414;2023-12-28T06:38:38;11.40;99.90
3053;DHT22;1536;51.098;6.414;2023-12-28T06:41:10;11.40;99.90
3053;DHT22;1536;51.098;6.414;2023-12-28T06:43:39;11.40;99.90
3053;DHT22;1536;51.098;6.414;2023-12-28T06:46:05;11.40;99.90
3053;DHT22;1536;51.098;6.414;2023-12-28T06:48:33;11.40;99.90
3053;DHT22;1536;51.098;6.414;2023-12-28T06:50:59;11.40;99.90
3053;DHT22;1536;51.098;6.414;2023-12-28T06:53:26;11.40;99.90
3053;DHT22;1536;51.098;6.414;2023-12-28T06:55:53;11.40;99.90
3053;DHT22;1536;51.098;6.414;2023-12-28T06:58:19;11.40;99.90
3053;DHT22;1536;51.098;6.414;2023-12-28T07:00:47;11.40;99.90
3053;DHT22;1536;51.098;6.414;2023-12-28T07:03:14;11.40;99.90
3053;DHT22;1536;51.098;6.414;2023-12-28T07:05:41;11.40;99.90
3053;DHT22;1536;51.098;6.414;2023-12-28T07:08:08;11.40;99.90
3053;DHT22;1536;51.098;6.414;2023-12-28T07:10:35;11.40;99.90
3053;DHT22;1536;51.098;6.414;2023-12-28T07:13:02;11.40;99.90
3053;DHT22;1536;51.098;6.414;2023-12-28T07:15:29;11.40;99.90
3053;DHT22;1536;51.098;6.414;2023-12-28T07:18:00;11.40;99.90
3053;DHT22;1536;51.098;6.414;2023-12-28T07:20:27;11.40;99.90
3053;DHT22;1536;51.098;6.414;2023-12-28T07:22:54;11.40;99.90
3053;DHT22;1536;51.098;6.414;2023-12-28T07:25:20;11.40;99.90
3053;DHT22;1536;51.098;6.414;2023-12-28T07:27:47;11.40;99.90
3053;DHT22;1536;51.098;6.414;2023-12-28T07:30:14;11.40;99.90
3053;DHT22;1536;51.098;6.414;2023-12-28T07:32:42;11.40;99.90
3053;DHT22;1536;51.098;6.414;2023-12-28T07:35:10;11.40;99.90
3053;DHT22;1536;51.098;6.414;2023-12-28T07:37:37;11.30;99.90
3053;DHT22;1536;51.098;6.414;2023-12-28T07:40:05;11.40;99.90
3053;DHT22;1536;51.098;6.414;2023-12-28T07:42:33;11.40;99.90
3053;DHT22;1536;51.098;6.414;2023-12-28T07:44:59;11.30;99.90
3053;DHT22;1536;51.098;6.414;2023-12-28T07:47:26;11.40;99.90
3053;DHT22;1536;51.098;6.414;2023-12-28T07:49:53;11.30;99.90
3053;DHT22;1536;51.098;6.414;2023-12-28T07:52:21;11.30;99.90
3053;DHT22;1536;51.098;6.414;2023-12-28T07:54:48;11.30;99.90
3053;DHT22;1536;51.098;6.414;2023-12-28T07:57:15;11.40;99.90
3053;DHT22;1536;51.098;6.414;2023-12-28T07:59:42;11.30;99.90
3053;DHT22;1536;51.098;6.414;2023-12-28T08:02:09;11.30;99.90
3053;DHT22;1536;51.098;6.414;2023-12-28T08:04:36;11.30;99.90
3053;DHT22;1536;51.098;6.414;2023-12-28T08:07:03;11.30;99.90
3053;DHT22;1536;51.098;6.414;2023-12-28T08:09:31;11.30;99.90
3053;DHT22;1536;51.098;6.414;2023-12-28T08:11:58;11.30;99.90
3053;DHT22;1536;51.098;6.414;2023-12-28T08:14:25;11.30;99.90
3053;DHT22;1536;51.098;6.414;2023-12-28T08:16:51;11.30;99.90
3053;DHT22;1536;51.098;6.414;2023-12-28T08:19:18;11.30;99.90
3053;DHT22;1536;51.098;6.414;2023-12-28T08:21:45;11.30;99.90
3053;DHT22;1536;51.098;6.414;2023-12-28T08:24:12;11.20;99.90
3053;DHT22;1536;51.098;6.414;2023-12-28T08:26:40;11.20;99.90
3053;DHT22;1536;51.098;6.414;2023-12-28T08:29:07;11.20;99.90
3053;DHT22;1536;51.098;6.414;2023-12-28T08:31:34;11.20;99.90
3053;DHT22;1536;51.098;6.414;2023-12-28T08:34:01;11.20;99.90
3053;DHT22;1536;51.098;6.414;2023-12-28T08:36:27;11.20;99.90
3053;DHT22;1536;51.098;6.414;2023-12-28T08:38:54;11.20;99.90
3053;DHT22;1536;51.098;6.414;2023-12-28T08:41:22;11.20;99.90
3053;DHT22;1536;51.098;6.414;2023-12-28T08:43:51;11.20;99.90
3053;DHT22;1536;51.098;6.414;2023-12-28T08:46:50;11.20;99.90
3053;DHT22;1536;51.098;6.414;2023-12-28T08:49:16;11.20;99.90
3053;DHT22;1536;51.098;6.414;2023-12-28T08:51:43;11.20;99.90
3053;DHT22;1536;51.098;6.414;2023-12-28T08:54:10;11.20;99.90
3053;DHT22;1536;51.098;6.414;2023-12-28T08:56:37;11.20;99.90
3053;DHT22;1536;51.098;6.414;2023-12-28T08:59:05;11.20;99.90
3053;DHT22;1536;51.098;6.414;2023-12-28T09:01:31;11.30;99.90
3053;DHT22;1536;51.098;6.414;2023-12-28T09:03:59;11.30;99.90
3053;DHT22;1536;51.098;6.414;2023-12-28T09:06:26;11.30;99.90
3053;DHT22;1536;51.098;6.414;2023-12-28T09:08:53;11.30;99.90
3053;DHT22;1536;51.098;6.414;2023-12-28T09:11:20;11.30;99.90
3053;DHT22;1536;51.098;6.414;2023-12-28T09:13:47;11.30;99.90
3053;DHT22;1536;51.098;6.414;2023-12-28T09:16:15;11.40;99.90
3053;DHT22;1536;51.098;6.414;2023-12-28T09:18:42;11.40;99.90
3053;DHT22;1536;51.098;6.414;2023-12-28T09:21:09;11.40;99.90
3053;DHT22;1536;51.098;6.414;2023-12-28T09:23:36;11.40;99.90
3053;DHT22;1536;51.098;6.414;2023-12-28T09:26:04;11.40;99.90
3053;DHT22;1536;51.098;6.414;2023-12-28T09:28:31;11.40;99.90
3053;DHT22;1536;51.098;6.414;2023-12-28T09:30:59;11.50;99.90
3053;DHT22;1536;51.098;6.414;2023-12-28T09:33:27;11.50;99.90
3053;DHT22;1536;51.098;6.414;2023-12-28T09:35:54;11.50;99.90
3053;DHT22;1536;51.098;6.414;2023-12-28T09:38:21;11.60;99.90
3053;DHT22;1536;51.098;6.414;2023-12-28T09:40:52;11.60;99.90
3053;DHT22;1536;51.098;6.414;2023-12-28T09:43:22;11.60;99.90
3053;DHT22;1536;51.098;6.414;2023-12-28T09:45:49;11.60;99.90
3053;DHT22;1536;51.098;6.414;2023-12-28T09:48:22;11.60;99.90
3053;DHT22;1536;51.098;6.414;2023-12-28T09:50:52;11.60;99.90
3053;DHT22;1536;51.098;6.414;2023-12-28T09:53:21;11.70;99.90
3053;DHT22;1536;51.098;6.414;2023-12-28T09:55:49;11.70;99.90
3053;DHT22;1536;51.098;6.414;2023-12-28T09:58:17;11.70;99.90
3053;DHT22;1536;51.098;6.414;2023-12-28T10:00:46;11.70;99.90
3053;DHT22;1536;51.098;6.414;2023-12-28T10:03:14;11.70;99.90
3053;DHT22;1536;51.098;6.414;2023-12-28T10:05:42;11.80;99.90
3053;DHT22;1536;51.098;6.414;2023-12-28T10:08:11;11.80;99.90
3053;DHT22;1536;51.098;6.414;2023-12-28T10:10:38;11.80;99.90
3053;DHT22;1536;51.098;6.414;2023-12-28T10:13:06;11.80;99.90
3053;DHT22;1536;51.098;6.414;2023-12-28T10:15:33;11.90;99.90
3053;DHT22;1536;51.098;6.414;2023-12-28T10:18:06;11.90;99.90
3053;DHT22;1536;51.098;6.414;2023-12-28T10:20:33;11.90;99.90
3053;DHT22;1536;51.098;6.414;2023-12-28T10:23:00;11.90;99.90
3053;DHT22;1536;51.098;6.414;2023-12-28T10:25:29;11.90;99.90
3053;DHT22;1536;51.098;6.414;2023-12-28T10:27:56;12.00;99.90
3053;DHT22;1536;51.098;6.414;2023-12-28T10:30:24;12.00;99.90
3053;DHT22;1536;51.098;6.414;2023-12-28T10:32:52;12.10;99.90
3053;DHT22;1536;51.098;6.414;2023-12-28T10:35:19;12.20;99.90
3053;DHT22;1536;51.098;6.414;2023-12-28T10:37:46;12.20;99.90
3053;DHT22;1536;51.098;6.414;2023-12-28T10:40:15;12.20;99.90
3053;DHT22;1536;51.098;6.414;2023-12-28T10:42:50;12.30;99.90
3053;DHT22;1536;51.098;6.414;2023-12-28T10:45:18;12.30;99.90
3053;DHT22;1536;51.098;6.414;2023-12-28T10:48:05;12.30;99.90
3053;DHT22;1536;51.098;6.414;2023-12-28T10:50:38;12.30;99.90
3053;DHT22;1536;51.098;6.414;2023-12-28T10:53:19;12.40;99.90
3053;DHT22;1536;51.098;6.414;2023-12-28T10:55:53;12.40;99.90
3053;DHT22;1536;51.098;6.414;2023-12-28T10:58:31;12.40;99.90
3053;DHT22;1536;51.098;6.414;2023-12-28T11:01:05;12.40;99.90
3053;DHT22;1536;51.098;6.414;2023-12-28T11:03:37;12.40;99.90
3053;DHT22;1536;51.098;6.414;2023-12-28T11:06:07;12.40;99.90
3053;DHT22;1536;51.098;6.414;2023-12-28T11:08:35;12.40;99.90
3053;DHT22;1536;51.098;6.414;2023-12-28T11:11:04;12.40;99.90
3053;DHT22;1536;51.098;6.414;2023-12-28T11:13:33;12.50;99.90
3053;DHT22;1536;51.098;6.414;2023-12-28T11:16:02;12.50;99.90
3053;DHT22;1536;51.098;6.414;2023-12-28T11:18:29;12.50;99.90
3053;DHT22;1536;51.098;6.414;2023-12-28T11:20:56;12.50;99.90
3053;DHT22;1536;51.098;6.414;2023-12-28T11:23:24;12.50;99.90
3053;DHT22;1536;51.098;6.414;2023-12-28T11:25:52;12.50;99.90
3053;DHT22;1536;51.098;6.414;2023-12-28T11:28:19;12.50;99.90
3053;DHT22;1536;51.098;6.414;2023-12-28T11:30:47;12.50;99.90
3053;DHT22;1536;51.098;6.414;2023-12-28T11:33:14;12.50;99.90
3053;DHT22;1536;51.098;6.414;2023-12-28T11:35:42;12.50;99.90
3053;DHT22;1536;51.098;6.414;2023-12-28T11:38:09;12.50;99.90
3053;DHT22;1536;51.098;6.414;2023-12-28T11:40:41;12.50;99.90
3053;DHT22;1536;51.098;6.414;2023-12-28T11:43:15;12.60;99.90
3053;DHT22;1536;51.098;6.414;2023-12-28T11:45:49;12.60;99.90
3053;DHT22;1536;51.098;6.414;2023-12-28T11:48:24;12.70;99.90
3053;DHT22;1536;51.098;6.414;2023-12-28T11:50:55;12.70;99.90
3053;DHT22;1536;51.098;6.414;2023-12-28T11:53:22;12.70;99.90
3053;DHT22;1536;51.098;6.414;2023-12-28T11:55:50;12.70;99.90
3053;DHT22;1536;51.098;6.414;2023-12-28T11:58:16;12.70;99.90
3053;DHT22;1536;51.098;6.414;2023-12-28T12:00:43;12.70;99.90
3053;DHT22;1536;51.098;6.414;2023-12-28T12:03:12;12.80;99.90
3053;DHT22;1536;51.098;6.414;2023-12-28T12:05:39;12.80;99.90
3053;DHT22;1536;51.098;6.414;2023-12-28T12:08:06;12.80;99.90
3053;DHT22;1536;51.098;6.414;2023-12-28T12:10:34;12.80;99.90
3053;DHT22;1536;51.098;6.414;2023-12-28T12:13:01;12.90;99.90
3053;DHT22;1536;51.098;6.414;2023-12-28T12:15:31;12.90;99.90
3053;DHT22;1536;51.098;6.414;2023-12-28T12:18:14;12.90;99.90
3053;DHT22;1536;51.098;6.414;2023-12-28T12:20:42;12.90;99.90
3053;DHT22;1536;51.098;6.414;2023-12-28T12:23:08;12.90;99.90
3053;DHT22;1536;51.098;6.414;2023-12-28T12:25:36;12.90;99.90
3053;DHT22;1536;51.098;6.414;2023-12-28T12:28:04;12.90;99.90
3053;DHT22;1536;51.098;6.414;2023-12-28T12:30:30;12.90;99.90
3053;DHT22;1536;51.098;6.414;2023-12-28T12:32:57;12.90;99.90
3053;DHT22;1536;51.098;6.414;2023-12-28T12:35:25;12.90;99.90
3053;DHT22;1536;51.098;6.414;2023-12-28T12:37:52;12.90;99.90
3053;DHT22;1536;51.098;6.414;2023-12-28T12:40:19;12.90;99.90
3053;DHT22;1536;51.098;6.414;2023-12-28T12:42:52;12.90;99.90
3053;DHT22;1536;51.098;6.414;2023-12-28T12:45:20;12.90;99.90
3053;DHT22;1536;51.098;6.414;2023-12-28T12:47:47;12.90;99.90
3053;DHT22;1536;51.098;6.414;2023-12-28T12:50:15;12.90;99.90
3053;DHT22;1536;51.098;6.414;2023-12-28T12:52:43;13.00;99.90
3053;DHT22;1536;51.098;6.414;2023-12-28T12:55:11;13.00;99.90
3053;DHT22;1536;51.098;6.414;2023-12-28T12:57:38;13.00;99.90
3053;DHT22;1536;51.098;6.414;2023-12-28T13:00:06;13.00;99.90
3053;DHT22;1536;51.098;6.414;2023-12-28T13:02:34;13.00;99.90
3053;DHT22;1536;51.098;6.414;2023-12-28T13:05:02;13.00;99.90
3053;DHT22;1536;51.098;6.414;2023-12-28T13:07:29;12.90;99.90
3053;DHT22;1536;51.098;6.414;2023-12-28T13:09:57;13.00;99.90
3053;DHT22;1536;51.098;6.414;2023-12-28T13:12:24;12.90;99.90
3053;DHT22;1536;51.098;6.414;2023-12-28T13:14:51;12.90;99.90
3053;DHT22;1536;51.098;6.414;2023-12-28T13:17:24;12.90;99.90
3053;DHT22;1536;51.098;6.414;2023-12-28T13:19:50;12.90;99.90
3053;DHT22;1536;51.098;6.414;2023-12-28T13:22:17;12.90;99.90
3053;DHT22;1536;51.098;6.414;2023-12-28T13:24:44;12.90;99.90
3053;DHT22;1536;51.098;6.414;2023-12-28T13:27:12;12.90;99.90
3053;DHT22;1536;51.098;6.414;2023-12-28T13:29:40;12.90;99.90
3053;DHT22;1536;51.098;6.414;2023-12-28T13:32:06;12.90;99.90
3053;DHT22;1536;51.098;6.414;2023-12-28T13:34:33;12.90;99.90
3053;DHT22;1536;51.098;6.414;2023-12-28T13:37:00;12.90;99.90
3053;DHT22;1536;51.098;6.414;2023-12-28T13:39:28;12.90;99.90
3053;DHT22;1536;51.098;6.414;2023-12-28T13:41:55;12.90;99.90
3053;DHT22;1536;51.098;6.414;2023-12-28T13:44:23;12.90;99.90
3053;DHT22;1536;51.098;6.414;2023-12-28T13:46:53;12.90;99.90
3053;DHT22;1536;51.098;6.414;2023-12-28T13:49:20;12.80;99.90
3053;DHT22;1536;51.098;6.414;2023-12-28T13:51:47;12.80;99.90
3053;DHT22;1536;51.098;6.414;2023-12-28T13:54:15;12.80;99.90
3053;DHT22;1536;51.098;6.414;2023-12-28T13:56:41;12.80;99.90
3053;DHT22;1536;51.098;6.414;2023-12-28T13:59:10;12.80;99.90
3053;DHT22;1536;51.098;6.414;2023-12-28T14:01:38;12.90;99.90
3053;DHT22;1536;51.098;6.414;2023-12-28T14:04:05;12.80;99.90
3053;DHT22;1536;51.098;6.414;2023-12-28T14:06:32;12.90;99.90
3053;DHT22;1536;51.098;6.414;2023-12-28T14:08:59;12.80;99.90
3053;DHT22;1536;51.098;6.414;2023-12-28T14:11:26;12.80;99.90
3053;DHT22;1536;51.098;6.414;2023-12-28T14:13:52;12.80;99.90
3053;DHT22;1536;51.098;6.414;2023-12-28T14:16:22;12.80;99.90
3053;DHT22;1536;51.098;6.414;2023-12-28T14:18:51;12.70;99.90
3053;DHT22;1536;51.098;6.414;2023-12-28T14:21:18;12.70;99.90
3053;DHT22;1536;51.098;6.414;2023-12-28T14:23:46;12.70;99.90
3053;DHT22;1536;51.098;6.414;2023-12-28T14:26:14;12.70;99.90
3053;DHT22;1536;51.098;6.414;2023-12-28T14:28:41;12.70;99.90
3053;DHT22;1536;51.098;6.414;2023-12-28T14:31:09;12.70;99.90
3053;DHT22;1536;51.098;6.414;2023-12-28T14:33:37;12.70;99.90
3053;DHT22;1536;51.098;6.414;2023-12-28T14:36:11;12.70;99.90
3053;DHT22;1536;51.098;6.414;2023-12-28T14:38:41;12.70;99.90
3053;DHT22;1536;51.098;6.414;2023-12-28T14:41:07;12.60;99.90
3053;DHT22;1536;51.098;6.414;2023-12-28T14:43:34;12.60;99.90
3053;DHT22;1536;51.098;6.414;2023-12-28T14:46:01;12.60;99.90
3053;DHT22;1536;51.098;6.414;2023-12-28T14:48:30;12.60;99.90
3053;DHT22;1536;51.098;6.414;2023-12-28T14:50:57;12.50;99.90
3053;DHT22;1536;51.098;6.414;2023-12-28T14:53:25;12.50;99.90
3053;DHT22;1536;51.098;6.414;2023-12-28T14:55:51;12.50;99.90
3053;DHT22;1536;51.098;6.414;2023-12-28T14:58:18;12.50;99.90
3053;DHT22;1536;51.098;6.414;2023-12-28T15:00:47;12.50;99.90
3053;DHT22;1536;51.098;6.414;2023-12-28T15:03:14;12.50;99.90
3053;DHT22;1536;51.098;6.414;2023-12-28T15:05:41;12.40;99.90
3053;DHT22;1536;51.098;6.414;2023-12-28T15:08:07;12.40;99.90
3053;DHT22;1536;51.098;6.414;2023-12-28T15:10:36;12.40;99.90
3053;DHT22;1536;51.098;6.414;2023-12-28T15:13:03;12.40;99.90
3053;DHT22;1536;51.098;6.414;2023-12-28T15:15:31;12.30;99.90
3053;DHT22;1536;51.098;6.414;2023-12-28T15:18:05;12.30;99.90
3053;DHT22;1536;51.098;6.414;2023-12-28T15:20:32;12.30;99.90
3053;DHT22;1536;51.098;6.414;2023-12-28T15:22:59;12.30;99.90
3053;DHT22;1536;51.098;6.414;2023-12-28T15:25:26;12.30;99.90
3053;DHT22;1536;51.098;6.414;2023-12-28T15:27:54;12.20;99.90
3053;DHT22;1536;51.098;6.414;2023-12-28T15:30:22;12.20;99.90
3053;DHT22;1536;51.098;6.414;2023-12-28T15:32:48;12.20;99.90
3053;DHT22;1536;51.098;6.414;2023-12-28T15:35:15;12.20;99.90
3053;DHT22;1536;51.098;6.414;2023-12-28T15:37:42;12.20;99.90
3053;DHT22;1536;51.098;6.414;2023-12-28T15:40:10;12.20;99.90
3053;DHT22;1536;51.098;6.414;2023-12-28T15:42:37;12.10;99.90
3053;DHT22;1536;51.098;6.414;2023-12-28T15:45:06;12.10;99.90
3053;DHT22;1536;51.098;6.414;2023-12-28T15:47:33;12.10;99.90
3053;DHT22;1536;51.098;6.414;2023-12-28T15:50:00;12.10;99.90
3053;DHT22;1536;51.098;6.414;2023-12-28T15:52:27;12.10;99.90
3053;DHT22;1536;51.098;6.414;2023-12-28T15:54:54;12.00;99.90
3053;DHT22;1536;51.098;6.414;2023-12-28T15:57:21;12.00;99.90
3053;DHT22;1536;51.098;6.414;2023-12-28T15:59:48;12.00;99.90
3053;DHT22;1536;51.098;6.414;2023-12-28T16:02:16;12.00;99.90
3053;DHT22;1536;51.098;6.414;2023-12-28T16:04:44;12.00;99.90
3053;DHT22;1536;51.098;6.414;2023-12-28T16:07:12;12.00;99.90